Main page
METAR-TAF:

METAR-TAF

Airports :

Phoenix Goodyear Airport

Goodyear, Arizona, United States

latitude: 33-25N, longitude: 112-23W, elevation: 968 ft

Current weather observation

The report was made 11 minutes ago, at 00:47 UTC
Wind 16 mph from the Southwest with gusts up to 26 mph
Temperature 70°F
Humidity 28%
Pressure 29.89 in. Hg
Visibility: 10 miles
Few clouds at a height of 6000 ft

METAR: KGYR 040047Z 23014G23KT 10SM FEW060 21/02 A2989

Time: 17:58 (00:58 UTC)


TAF: missing

Weather observations and forecasts of more than 4000 airports (METAR and TAF reports).

The available stations are represented by yellow and red dots on the map.

Hover mouse over dot to see the name of the station.

Then click to see weather observations and forecasts.

To change the map : click on the green buttons with a black cross to zoom in, on the green button with a dash to zoom out, or on the green arrows for adjacent maps.


METAR-TAF: